createdAt,value
2018-08-22T00:00:40.686Z,25.72
2018-08-22T00:03:09.299Z,25.74
2018-08-22T00:05:37.794Z,25.74
2018-08-22T00:08:06.630Z,25.74
2018-08-22T00:10:35.159Z,25.72
2018-08-22T00:13:03.727Z,25.72
2018-08-22T00:15:32.288Z,25.71
2018-08-22T00:18:00.867Z,25.71
2018-08-22T00:20:29.702Z,25.71
2018-08-22T00:22:58.504Z,25.71
2018-08-22T00:25:27.909Z,25.70
2018-08-22T00:27:56.558Z,25.67
2018-08-22T00:30:25.591Z,25.65
2018-08-22T00:32:54.380Z,25.63
2018-08-22T00:35:23.102Z,25.59
2018-08-22T00:37:52.130Z,25.55
2018-08-22T00:40:21.022Z,25.50
2018-08-22T00:42:49.774Z,25.46
2018-08-22T00:45:18.533Z,25.43
2018-08-22T00:47:47.415Z,25.37
2018-08-22T00:50:16.413Z,25.32
2018-08-22T00:52:46.603Z,25.27
2018-08-22T00:55:15.264Z,25.22
2018-08-22T00:57:43.898Z,25.19
2018-08-22T01:00:12.690Z,25.15
2018-08-22T01:02:41.579Z,25.11
2018-08-22T01:05:10.122Z,25.06
2018-08-22T01:07:38.860Z,25.02
2018-08-22T01:10:08.663Z,24.98
2018-08-22T01:12:37.995Z,24.95
2018-08-22T01:15:07.031Z,24.91
2018-08-22T01:17:35.719Z,24.89
2018-08-22T01:20:04.678Z,24.86
2018-08-22T01:22:33.299Z,24.82
2018-08-22T01:25:02.130Z,24.80
2018-08-22T01:27:31.123Z,24.77
2018-08-22T01:29:59.784Z,24.74
2018-08-22T01:32:28.338Z,24.72
2018-08-22T01:34:56.942Z,24.70
2018-08-22T01:37:25.455Z,24.66
2018-08-22T01:39:54.056Z,24.64
2018-08-22T01:42:23.441Z,24.62
2018-08-22T01:44:52.038Z,24.60
2018-08-22T01:47:20.594Z,24.58
2018-08-22T01:49:49.144Z,24.54
2018-08-22T01:52:17.760Z,24.52
2018-08-22T01:54:46.338Z,24.53
2018-08-22T01:57:14.954Z,21.65
2018-08-22T01:59:43.476Z,24.51
2018-08-22T02:02:12.033Z,24.50
2018-08-22T02:04:40.602Z,24.50
2018-08-22T02:07:09.124Z,24.51
2018-08-22T02:09:37.800Z,24.51
2018-08-22T02:12:06.338Z,24.51
2018-08-22T02:14:34.972Z,24.53
2018-08-22T02:17:03.530Z,24.54
2018-08-22T02:19:32.152Z,24.56
2018-08-22T02:22:00.693Z,24.57
2018-08-22T02:24:29.338Z,24.60
2018-08-22T02:26:57.966Z,24.61
2018-08-22T02:29:26.528Z,24.61
2018-08-22T02:31:55.078Z,24.63
2018-08-22T02:34:23.806Z,24.25
2018-08-22T02:36:52.687Z,24.62
2018-08-22T02:39:38.392Z,24.60
2018-08-22T02:42:18.312Z,24.55
2018-08-22T02:47:45.603Z,24.46
2018-08-22T02:50:14.182Z,24.41
2018-08-22T02:52:42.807Z,24.36
2018-08-22T02:55:11.380Z,24.33
2018-08-22T02:57:40.036Z,24.29
2018-08-22T03:00:08.731Z,24.27
2018-08-22T03:02:37.362Z,24.23
2018-08-22T03:05:05.969Z,24.18
2018-08-22T03:07:34.664Z,24.15
2018-08-22T03:10:03.365Z,24.11
2018-08-22T03:12:32.002Z,24.08
2018-08-22T03:15:00.637Z,24.05
2018-08-22T03:17:29.221Z,24.02
2018-08-22T03:19:57.786Z,23.98
2018-08-22T03:22:26.345Z,23.95
2018-08-22T03:24:54.929Z,23.90
2018-08-22T03:27:23.448Z,23.88
2018-08-22T03:29:52.817Z,23.84
2018-08-22T03:32:21.465Z,23.83
2018-08-22T03:34:50.169Z,23.81
2018-08-22T03:37:19.107Z,23.79
2018-08-22T03:39:47.798Z,23.76
2018-08-22T03:42:16.376Z,23.75
2018-08-22T03:44:44.997Z,23.74
2018-08-22T03:47:13.549Z,23.72
2018-08-22T03:49:42.104Z,23.70
2018-08-22T03:52:10.627Z,23.69
2018-08-22T03:54:39.213Z,23.67
2018-08-22T03:57:07.840Z,23.66
2018-08-22T03:59:36.469Z,23.67
2018-08-22T04:02:05.152Z,23.67
2018-08-22T04:04:33.740Z,23.64
2018-08-22T04:07:02.425Z,23.63
2018-08-22T04:09:30.999Z,23.44
2018-08-22T04:11:59.553Z,23.58
2018-08-22T04:14:28.252Z,23.56
2018-08-22T04:16:56.884Z,23.53
2018-08-22T04:19:25.519Z,23.49
2018-08-22T04:21:54.771Z,23.48
2018-08-22T04:24:23.343Z,23.44
2018-08-22T04:26:52.036Z,23.42
2018-08-22T04:29:21.736Z,23.39
2018-08-22T04:31:57.043Z,23.37
2018-08-22T04:34:27.723Z,23.33
2018-08-22T04:36:58.593Z,23.32
2018-08-22T04:42:26.615Z,23.21
2018-08-22T04:44:57.728Z,23.30
2018-08-22T04:47:27.420Z,23.28
2018-08-22T04:49:56.038Z,23.28
2018-08-22T04:52:24.635Z,23.28
2018-08-22T04:54:53.340Z,23.30
2018-08-22T04:57:21.940Z,23.32
2018-08-22T04:59:50.536Z,23.35
2018-08-22T05:02:19.117Z,23.38
2018-08-22T05:04:47.778Z,23.39
2018-08-22T05:07:16.556Z,23.43
2018-08-22T05:09:45.147Z,23.46
2018-08-22T05:12:13.817Z,23.48
2018-08-22T05:14:42.395Z,23.50
2018-08-22T05:17:11.011Z,23.52
2018-08-22T05:19:39.755Z,23.55
2018-08-22T05:22:08.351Z,23.60
2018-08-22T05:24:36.931Z,23.65
2018-08-22T05:27:05.579Z,23.70
2018-08-22T05:29:34.792Z,23.77
2018-08-22T05:32:03.393Z,23.82
2018-08-22T05:34:32.185Z,23.90
2018-08-22T05:37:00.934Z,23.98
2018-08-22T05:39:29.595Z,24.06
2018-08-22T05:41:58.240Z,24.12
2018-08-22T05:44:26.998Z,24.20
2018-08-22T05:46:55.837Z,24.29
2018-08-22T05:49:24.479Z,24.32
2018-08-22T05:51:56.600Z,24.36
2018-08-22T05:54:26.081Z,24.42
2018-08-22T05:56:54.641Z,24.54
2018-08-22T05:59:23.190Z,24.64
2018-08-22T06:01:51.740Z,24.77
2018-08-22T06:04:20.257Z,24.88
2018-08-22T06:06:48.770Z,25.02
2018-08-22T06:09:17.306Z,25.15
2018-08-22T06:11:45.837Z,25.28
2018-08-22T06:14:14.344Z,25.43
2018-08-22T06:16:43.157Z,25.72
2018-08-22T06:19:11.688Z,26.15
2018-08-22T06:21:40.305Z,26.61
2018-08-22T06:24:09.050Z,27.06
2018-08-22T06:26:37.774Z,27.59
2018-08-22T06:29:06.344Z,28.10
2018-08-22T06:31:35.035Z,28.56
2018-08-22T06:34:03.706Z,29.02
2018-08-22T06:36:32.324Z,29.49
2018-08-22T06:39:00.905Z,29.96
2018-08-22T06:41:29.504Z,30.44
2018-08-22T06:43:58.173Z,30.95
2018-08-22T06:46:26.729Z,31.43
2018-08-22T06:48:55.409Z,31.89
2018-08-22T06:51:23.968Z,32.28
2018-08-22T06:53:52.594Z,32.74
2018-08-22T06:56:21.260Z,33.05
2018-08-22T06:58:49.816Z,33.39
2018-08-22T07:01:18.400Z,33.75
2018-08-22T07:03:46.989Z,34.17
2018-08-22T07:06:15.564Z,34.60
2018-08-22T07:08:44.169Z,35.01
2018-08-22T07:11:12.810Z,35.40
2018-08-22T07:13:41.532Z,35.75
2018-08-22T07:16:10.278Z,36.11
2018-08-22T07:18:38.877Z,36.56
2018-08-22T07:21:07.571Z,36.94
2018-08-22T07:23:36.265Z,37.22
2018-08-22T07:26:04.962Z,37.52
2018-08-22T07:28:33.684Z,37.95
2018-08-22T07:31:02.267Z,38.33
2018-08-22T07:33:30.858Z,38.70
2018-08-22T07:36:00.318Z,39.05
2018-08-22T07:38:28.950Z,39.19
2018-08-22T07:40:57.750Z,39.35
2018-08-22T07:43:26.375Z,39.43
2018-08-22T07:45:54.962Z,39.59
2018-08-22T07:48:23.708Z,39.75
2018-08-22T07:50:52.472Z,39.88
2018-08-22T07:53:21.223Z,40.08
2018-08-22T07:55:49.783Z,40.47
2018-08-22T07:58:18.736Z,40.81
2018-08-22T08:00:47.408Z,41.10
2018-08-22T08:03:16.057Z,41.27
2018-08-22T08:05:44.787Z,40.84
2018-08-22T08:08:13.539Z,41.48
2018-08-22T08:10:42.422Z,41.67
2018-08-22T08:13:16.585Z,41.86
2018-08-22T08:15:45.199Z,42.05
2018-08-22T08:18:13.888Z,42.17
2018-08-22T08:20:42.632Z,42.24
2018-08-22T08:23:11.216Z,42.28
2018-08-22T08:25:39.901Z,42.33
2018-08-22T08:28:16.302Z,42.45
2018-08-22T08:30:45.030Z,42.72
2018-08-22T08:33:13.669Z,42.83
2018-08-22T08:35:42.228Z,42.88
2018-08-22T08:38:12.529Z,42.87
2018-08-22T08:40:41.335Z,42.81
2018-08-22T08:43:10.950Z,42.83
2018-08-22T08:45:39.894Z,42.38
2018-08-22T08:48:08.888Z,42.92
2018-08-22T08:50:38.533Z,43.35
2018-08-22T08:53:07.165Z,43.71
2018-08-22T08:55:36.117Z,44.13
2018-08-22T08:58:05.247Z,44.42
2018-08-22T09:00:33.854Z,45.16
2018-08-22T09:03:04.756Z,45.73
2018-08-22T09:05:33.566Z,46.33
2018-08-22T09:08:03.424Z,46.84
2018-08-22T09:10:32.035Z,47.19
2018-08-22T09:13:00.697Z,47.68
2018-08-22T09:15:29.323Z,48.22
2018-08-22T09:17:58.070Z,48.75
2018-08-22T09:20:26.811Z,49.04
2018-08-22T09:22:55.600Z,49.18
2018-08-22T09:25:24.380Z,49.30
2018-08-22T09:27:53.226Z,49.54
2018-08-22T09:30:21.904Z,49.81
2018-08-22T09:32:50.616Z,50.02
2018-08-22T09:35:19.276Z,50.08
2018-08-22T09:37:48.026Z,50.13
2018-08-22T09:40:18.723Z,50.38
2018-08-22T09:42:47.606Z,50.53
2018-08-22T09:45:16.298Z,50.47
2018-08-22T09:47:44.902Z,50.42
2018-08-22T09:50:13.608Z,50.36
2018-08-22T09:52:42.263Z,49.97
2018-08-22T09:55:10.936Z,49.66
2018-08-22T09:57:39.755Z,49.61
2018-08-22T10:00:12.565Z,49.58
2018-08-22T10:02:41.300Z,49.83
2018-08-22T10:05:09.922Z,50.15
2018-08-22T10:07:38.509Z,50.63
2018-08-22T10:10:07.254Z,50.86
2018-08-22T10:12:35.895Z,51.13
2018-08-22T10:15:04.717Z,51.16
2018-08-22T10:17:33.349Z,51.36
2018-08-22T10:20:02.044Z,51.84
2018-08-22T10:22:37.650Z,52.53
2018-08-22T10:25:10.419Z,53.09
2018-08-22T10:27:39.310Z,53.67
2018-08-22T10:30:08.274Z,54.18
2018-08-22T10:32:37.075Z,54.83
2018-08-22T10:35:06.276Z,55.22
2018-08-22T10:37:34.898Z,55.58
2018-08-22T10:40:03.467Z,55.89
2018-08-22T10:42:32.095Z,56.23
2018-08-22T10:45:00.760Z,56.26
2018-08-22T10:47:29.413Z,56.64
2018-08-22T10:49:58.204Z,56.83
2018-08-22T10:52:26.860Z,56.89
2018-08-22T10:54:55.634Z,56.98
2018-08-22T10:57:24.380Z,57.18
2018-08-22T10:59:53.158Z,57.24
2018-08-22T11:02:22.842Z,57.14
2018-08-22T11:04:51.605Z,57.38
2018-08-22T11:07:20.266Z,57.82
2018-08-22T11:09:49.036Z,58.08
2018-08-22T11:12:17.685Z,58.23
2018-08-22T11:14:46.420Z,58.48
2018-08-22T11:17:15.079Z,58.59
2018-08-22T11:19:43.722Z,58.66
2018-08-22T11:22:23.445Z,58.93
2018-08-22T11:25:03.663Z,59.23
2018-08-22T11:27:44.605Z,59.48
2018-08-22T11:30:24.705Z,59.43
2018-08-22T11:33:04.455Z,58.97
2018-08-22T11:35:31.855Z,58.74
2018-08-22T11:38:00.515Z,58.39
2018-08-22T11:40:29.206Z,58.04
2018-08-22T11:42:58.829Z,57.59
2018-08-22T11:45:28.414Z,57.09
2018-08-22T11:47:56.953Z,56.29
2018-08-22T11:50:25.608Z,55.08
2018-08-22T11:52:54.357Z,53.64
2018-08-22T11:55:23.099Z,52.04
2018-08-22T11:57:51.730Z,50.48
2018-08-22T12:00:20.371Z,49.12
2018-08-22T12:02:49.096Z,48.00
2018-08-22T12:05:17.883Z,46.90
2018-08-22T12:07:46.633Z,46.06
2018-08-22T12:10:15.349Z,45.17
2018-08-22T12:12:44.362Z,44.48
2018-08-22T12:15:13.105Z,43.97
2018-08-22T12:17:41.917Z,43.57
2018-08-22T12:20:10.795Z,43.20
2018-08-22T12:22:39.444Z,42.82
2018-08-22T12:25:08.134Z,42.55
2018-08-22T12:27:36.896Z,42.27
2018-08-22T12:30:05.763Z,41.96
2018-08-22T12:32:34.486Z,41.75
2018-08-22T12:35:03.234Z,41.53
2018-08-22T12:37:31.893Z,41.34
2018-08-22T12:40:00.559Z,41.15
2018-08-22T12:42:29.231Z,41.05
2018-08-22T12:44:57.837Z,40.88
2018-08-22T12:47:27.725Z,40.71
2018-08-22T12:49:56.532Z,40.54
2018-08-22T12:52:25.227Z,40.39
2018-08-22T12:54:54.042Z,40.17
2018-08-22T12:57:22.762Z,40.02
2018-08-22T12:59:51.389Z,39.89
2018-08-22T13:02:20.063Z,39.87
2018-08-22T13:04:48.714Z,39.89
2018-08-22T13:07:17.352Z,39.85
2018-08-22T13:09:45.937Z,39.82
2018-08-22T13:12:14.551Z,39.81
2018-08-22T13:14:43.285Z,39.68
2018-08-22T13:17:11.841Z,39.63
2018-08-22T13:19:40.422Z,39.62
2018-08-22T13:22:09.013Z,39.57
2018-08-22T13:24:37.689Z,39.55
2018-08-22T13:27:06.101Z,39.53
2018-08-22T13:29:34.666Z,39.45
2018-08-22T13:32:03.458Z,39.39
2018-08-22T13:34:32.221Z,39.38
2018-08-22T13:37:00.867Z,39.33
2018-08-22T13:39:29.673Z,39.30
2018-08-22T13:41:58.478Z,39.28
2018-08-22T13:44:27.326Z,39.26
2018-08-22T13:46:55.930Z,39.23
2018-08-22T13:49:24.498Z,39.16
2018-08-22T13:51:53.118Z,39.10
2018-08-22T13:54:22.048Z,39.08
2018-08-22T13:56:50.914Z,39.05
2018-08-22T13:59:20.617Z,39.01
2018-08-22T14:01:49.283Z,38.92
2018-08-22T14:04:17.890Z,38.79
2018-08-22T14:06:46.880Z,38.73
2018-08-22T14:09:15.563Z,38.65
2018-08-22T14:11:44.438Z,38.63
2018-08-22T14:14:13.122Z,38.60
2018-08-22T14:16:41.791Z,38.54
2018-08-22T14:19:10.439Z,38.42
2018-08-22T14:21:39.087Z,38.29
2018-08-22T14:24:07.705Z,38.22
2018-08-22T14:26:36.270Z,38.17
2018-08-22T14:29:04.906Z,38.11
2018-08-22T14:31:33.614Z,38.05
2018-08-22T14:34:02.199Z,37.33
2018-08-22T14:36:30.869Z,37.96
2018-08-22T14:38:59.522Z,37.89
2018-08-22T14:41:28.156Z,37.86
2018-08-22T14:43:56.761Z,37.81
2018-08-22T14:46:25.444Z,37.76
2018-08-22T14:48:55.122Z,37.73
2018-08-22T14:51:23.977Z,37.66
2018-08-22T14:53:52.702Z,37.63
2018-08-22T14:56:21.581Z,37.61
2018-08-22T14:58:50.293Z,34.91
2018-08-22T15:01:19.461Z,37.50
2018-08-22T15:03:48.438Z,37.29
2018-08-22T15:06:17.652Z,37.34
2018-08-22T15:08:46.439Z,37.26
2018-08-22T15:11:15.197Z,37.21
2018-08-22T15:13:43.904Z,37.14
2018-08-22T15:16:12.900Z,37.10
2018-08-22T15:18:41.677Z,37.07
2018-08-22T15:21:10.466Z,36.99
2018-08-22T15:23:39.236Z,36.92
2018-08-22T15:26:07.926Z,36.87
2018-08-22T15:28:36.516Z,36.83
2018-08-22T15:31:05.305Z,36.76
2018-08-22T15:33:34.001Z,36.71
2018-08-22T15:36:02.777Z,36.62
2018-08-22T15:38:31.575Z,36.57
2018-08-22T15:41:00.380Z,36.50
2018-08-22T15:43:29.003Z,36.44
2018-08-22T15:45:58.251Z,36.39
2018-08-22T15:48:27.033Z,36.34
2018-08-22T15:50:56.157Z,36.28
2018-08-22T15:53:25.153Z,36.20
2018-08-22T15:55:54.008Z,36.14
2018-08-22T15:58:22.933Z,36.10
2018-08-22T16:00:53.026Z,36.04
2018-08-22T16:03:22.657Z,35.97
2018-08-22T16:05:52.551Z,35.91
2018-08-22T16:08:23.433Z,35.80
2018-08-22T16:10:52.366Z,35.76
2018-08-22T16:13:26.287Z,35.69
2018-08-22T16:15:56.285Z,35.65
2018-08-22T16:18:25.072Z,35.61
2018-08-22T16:21:06.553Z,35.52
2018-08-22T16:23:36.492Z,35.48
2018-08-22T16:26:06.364Z,35.43
2018-08-22T16:28:49.019Z,35.38
2018-08-22T16:31:18.378Z,35.29
2018-08-22T16:33:47.333Z,35.21
2018-08-22T16:36:31.756Z,35.13
2018-08-22T16:39:01.913Z,35.04
2018-08-22T16:41:30.559Z,35.00
2018-08-22T16:43:59.301Z,34.96
2018-08-22T16:46:28.065Z,34.93
2018-08-22T16:48:56.742Z,34.87
2018-08-22T16:51:26.051Z,34.80
2018-08-22T16:54:01.450Z,34.74
2018-08-22T16:56:31.304Z,34.67
2018-08-22T16:59:11.204Z,34.60
2018-08-22T17:01:42.462Z,34.50
2018-08-22T17:04:11.070Z,34.42
2018-08-22T17:06:39.818Z,34.34
2018-08-22T17:09:10.049Z,34.24
2018-08-22T17:11:38.929Z,34.14
2018-08-22T17:14:07.674Z,34.04
2018-08-22T17:16:36.594Z,33.96
2018-08-22T17:19:05.354Z,33.87
2018-08-22T17:21:34.031Z,33.80
2018-08-22T17:24:02.716Z,33.74
2018-08-22T17:26:31.549Z,33.64
2018-08-22T17:29:01.307Z,33.57
2018-08-22T17:31:31.576Z,33.48
2018-08-22T17:34:03.098Z,33.39
2018-08-22T17:36:31.771Z,33.32
2018-08-22T17:39:02.464Z,33.23
2018-08-22T17:41:31.195Z,33.15
2018-08-22T17:44:08.211Z,33.06
2018-08-22T17:46:39.431Z,32.98
2018-08-22T17:49:08.122Z,32.91
2018-08-22T17:51:44.490Z,32.80
2018-08-22T17:54:13.350Z,32.71
2018-08-22T17:56:42.048Z,32.63
2018-08-22T17:59:10.920Z,32.54
2018-08-22T18:01:39.786Z,32.47
2018-08-22T18:04:08.470Z,32.37
2018-08-22T18:06:37.139Z,32.30
2018-08-22T18:09:06.322Z,32.23
2018-08-22T18:11:35.065Z,32.14
2018-08-22T18:14:03.709Z,32.07
2018-08-22T18:16:32.531Z,31.99
2018-08-22T18:19:01.396Z,31.93
2018-08-22T18:21:34.151Z,31.86
2018-08-22T18:24:02.901Z,31.82
2018-08-22T18:26:32.046Z,31.75
2018-08-22T18:29:00.741Z,31.68
2018-08-22T18:31:29.483Z,31.62
2018-08-22T18:34:02.610Z,31.57
2018-08-22T18:36:32.461Z,31.49
2018-08-22T18:39:02.806Z,31.41
2018-08-22T18:41:31.496Z,31.34
2018-08-22T18:44:00.386Z,31.27
2018-08-22T18:46:29.104Z,31.20
2018-08-22T18:49:01.931Z,31.12
2018-08-22T18:54:21.284Z,30.96
2018-08-22T18:56:49.997Z,30.89
2018-08-22T18:59:26.405Z,30.82
2018-08-22T19:01:57.408Z,30.75
2018-08-22T19:04:26.549Z,30.68
2018-08-22T19:06:55.267Z,30.65
2018-08-22T19:09:23.917Z,30.59
2018-08-22T19:11:52.661Z,30.54
2018-08-22T19:14:57.312Z,30.49
2018-08-22T19:17:26.075Z,30.44
2018-08-22T19:19:54.846Z,30.39
2018-08-22T19:22:23.534Z,30.31
2018-08-22T19:25:07.691Z,30.28
2018-08-22T19:27:36.391Z,30.23
2018-08-22T19:30:06.915Z,30.19
2018-08-22T19:32:36.015Z,30.14
2018-08-22T19:35:04.716Z,30.11
2018-08-22T19:37:33.482Z,30.07
2018-08-22T19:40:09.090Z,30.03
2018-08-22T19:42:40.544Z,29.98
2018-08-22T19:45:10.193Z,29.93
2018-08-22T19:47:39.805Z,29.88
2018-08-22T19:50:09.380Z,29.78
2018-08-22T19:52:38.125Z,29.72
2018-08-22T19:55:07.989Z,29.65
2018-08-22T19:57:40.033Z,29.59
2018-08-22T20:00:12.959Z,29.54
2018-08-22T20:02:41.871Z,29.49
2018-08-22T20:05:14.220Z,29.46
2018-08-22T20:07:46.059Z,29.41
2018-08-22T20:10:14.865Z,29.37
2018-08-22T20:12:54.586Z,29.32
2018-08-22T20:15:23.516Z,29.22
2018-08-22T20:17:55.787Z,29.16
2018-08-22T20:20:25.099Z,29.10
2018-08-22T20:22:56.007Z,29.05
2018-08-22T20:25:24.705Z,29.01
2018-08-22T20:27:53.342Z,28.95
2018-08-22T20:30:23.159Z,28.89
2018-08-22T20:32:58.959Z,28.85
2018-08-22T20:35:33.846Z,28.81
2018-08-22T20:38:03.815Z,28.75
2018-08-22T20:40:32.577Z,28.72
2018-08-22T20:43:01.250Z,28.67
2018-08-22T20:45:35.977Z,28.63
2018-08-22T20:48:07.647Z,28.56
2018-08-22T20:50:37.687Z,28.51
2018-08-22T20:53:07.882Z,28.46
2018-08-22T20:55:38.891Z,28.43
2018-08-22T20:58:17.502Z,28.37
2018-08-22T21:00:46.202Z,28.34
2018-08-22T21:03:15.856Z,28.31
2018-08-22T21:05:44.495Z,28.27
2018-08-22T21:08:13.089Z,28.25
2018-08-22T21:10:41.737Z,28.21
2018-08-22T21:13:15.467Z,28.17
2018-08-22T21:15:45.219Z,28.14
2018-08-22T21:18:13.800Z,28.12
2018-08-22T21:20:42.481Z,28.09
2018-08-22T21:23:11.158Z,28.08
2018-08-22T21:25:39.706Z,28.06
2018-08-22T21:28:08.286Z,28.03
2018-08-22T21:30:39.452Z,28.00
2018-08-22T21:33:08.092Z,27.97
2018-08-22T21:35:36.724Z,27.93
2018-08-22T21:38:09.445Z,27.15
2018-08-22T21:40:38.062Z,27.88
2018-08-22T21:43:06.668Z,27.85
2018-08-22T21:45:35.234Z,27.83
2018-08-22T21:48:15.897Z,27.79
2018-08-22T21:50:45.367Z,27.76
2018-08-22T21:53:14.045Z,27.72
2018-08-22T21:55:43.770Z,27.49
2018-08-22T21:58:12.817Z,27.66
2018-08-22T22:00:41.398Z,27.63
2018-08-22T22:03:11.446Z,27.58
2018-08-22T22:05:47.882Z,27.55
2018-08-22T22:08:16.547Z,27.53
2018-08-22T22:10:45.136Z,27.51
2018-08-22T22:13:13.889Z,27.45
2018-08-22T22:15:46.619Z,27.41
2018-08-22T22:18:15.332Z,27.38
2018-08-22T22:20:48.201Z,27.32
2018-08-22T22:23:16.869Z,27.28
2018-08-22T22:25:45.530Z,27.26
2018-08-22T22:28:14.232Z,27.20
2018-08-22T22:30:42.854Z,27.13
2018-08-22T22:33:11.488Z,27.08
2018-08-22T22:35:41.678Z,27.03
2018-08-22T22:38:11.309Z,26.98
2018-08-22T22:40:40.468Z,26.96
2018-08-22T22:43:10.422Z,26.92
2018-08-22T22:45:39.004Z,26.86
2018-08-22T22:48:07.681Z,26.86
2018-08-22T22:50:36.461Z,26.81
2018-08-22T22:53:06.597Z,26.76
2018-08-22T22:55:35.183Z,26.73
2018-08-22T22:58:03.986Z,26.70
2018-08-22T23:00:32.665Z,26.69
2018-08-22T23:03:07.720Z,26.68
2018-08-22T23:05:36.367Z,26.65
2018-08-22T23:08:04.943Z,26.61
2018-08-22T23:10:33.539Z,26.58
2018-08-22T23:13:02.222Z,26.53
2018-08-22T23:15:31.628Z,26.50
2018-08-22T23:18:04.795Z,26.46
2018-08-22T23:20:39.300Z,26.44
2018-08-22T23:23:24.311Z,26.42
2018-08-22T23:25:53.036Z,26.39
2018-08-22T23:28:21.612Z,26.39
2018-08-22T23:30:50.231Z,26.40
2018-08-22T23:33:18.856Z,26.42
2018-08-22T23:35:47.496Z,26.45
2018-08-22T23:38:21.342Z,26.47
2018-08-22T23:40:49.926Z,26.50
2018-08-22T23:43:18.597Z,26.49
2018-08-22T23:46:01.432Z,26.48
2018-08-22T23:48:33.976Z,26.45
2018-08-22T23:51:07.810Z,26.44
2018-08-22T23:53:52.899Z,26.42
2018-08-22T23:56:24.385Z,26.35
2018-08-22T23:58:54.080Z,26.33
